createdAt,value
2023-01-29T00:02:05.794Z,23.40
2023-01-29T00:04:33.816Z,23.42
2023-01-29T00:07:01.311Z,22.45
2023-01-29T00:09:31.343Z,22.92
2023-01-29T00:11:59.148Z,23.52
2023-01-29T00:14:27.482Z,24.52
2023-01-29T00:16:55.070Z,22.67
2023-01-29T00:19:22.621Z,23.10
2023-01-29T00:21:50.142Z,23.25
2023-01-29T00:24:17.755Z,25.00
2023-01-29T00:26:46.643Z,23.30
2023-01-29T00:29:14.657Z,24.50
2023-01-29T00:31:46.046Z,23.73
2023-01-29T00:34:13.748Z,25.65
2023-01-29T00:36:41.223Z,24.75
2023-01-29T00:39:11.345Z,23.95
2023-01-29T00:41:56.820Z,25.38
2023-01-29T00:44:43.435Z,24.27
2023-01-29T00:47:30.632Z,23.45
2023-01-29T00:49:58.639Z,23.23
2023-01-29T00:52:26.548Z,23.52
2023-01-29T00:54:55.365Z,24.35
2023-01-29T00:57:23.356Z,24.88
2023-01-29T00:59:52.457Z,23.63
2023-01-29T01:02:49.545Z,23.48
2023-01-29T01:05:18.817Z,24.13
2023-01-29T01:07:47.327Z,24.05
2023-01-29T01:10:22.315Z,23.08
2023-01-29T01:12:53.373Z,23.58
2023-01-29T01:15:23.457Z,25.27
2023-01-29T01:17:54.282Z,25.95
2023-01-29T01:20:21.949Z,23.88
2023-01-29T01:22:49.490Z,25.02
2023-01-29T01:25:17.532Z,25.40
2023-01-29T01:27:45.375Z,25.13
2023-01-29T01:30:16.218Z,24.70
2023-01-29T01:32:45.712Z,25.75
2023-01-29T01:35:14.695Z,25.95
2023-01-29T01:37:42.827Z,24.42
2023-01-29T01:40:18.453Z,25.48
2023-01-29T01:42:48.522Z,25.95
2023-01-29T01:45:21.202Z,26.38
2023-01-29T01:47:53.498Z,24.50
2023-01-29T01:50:25.606Z,25.65
2023-01-29T01:52:56.649Z,25.58
2023-01-29T01:55:27.430Z,24.83
2023-01-29T01:58:00.472Z,25.00
2023-01-29T02:00:28.130Z,25.98
2023-01-29T02:03:14.764Z,26.40
2023-01-29T02:06:00.369Z,26.08
2023-01-29T02:08:52.636Z,23.13
2023-01-29T02:11:20.759Z,27.27
2023-01-29T02:13:53.407Z,25.15
2023-01-29T02:16:21.692Z,27.35
2023-01-29T02:18:51.582Z,24.95
2023-01-29T02:21:42.504Z,26.75
2023-01-29T02:24:31.061Z,25.75
2023-01-29T02:27:06.965Z,25.88
2023-01-29T02:29:46.999Z,25.20
2023-01-29T02:32:22.043Z,24.20
2023-01-29T02:35:19.149Z,25.20
2023-01-29T02:37:56.211Z,26.40
2023-01-29T02:40:30.157Z,24.67
2023-01-29T02:43:03.962Z,24.38
2023-01-29T02:45:38.446Z,26.60
2023-01-29T02:48:06.805Z,25.98
2023-01-29T02:50:41.877Z,25.10
2023-01-29T02:53:13.942Z,24.50
2023-01-29T02:55:47.118Z,26.45
2023-01-29T02:58:19.711Z,26.90
2023-01-29T03:00:50.117Z,26.80
2023-01-29T03:03:21.375Z,25.75
2023-01-29T03:05:58.706Z,25.13
2023-01-29T03:08:43.079Z,28.55
2023-01-29T03:11:14.010Z,26.88
2023-01-29T03:13:46.238Z,26.75
2023-01-29T03:16:21.670Z,27.35
2023-01-29T03:21:55.156Z,27.38
2023-01-29T03:24:49.320Z,26.92
2023-01-29T03:27:39.717Z,27.40
2023-01-29T03:30:29.650Z,27.95
2023-01-29T03:33:03.657Z,29.27
2023-01-29T03:35:36.464Z,28.77
2023-01-29T03:38:05.010Z,28.55
2023-01-29T03:40:41.035Z,29.08
2023-01-29T03:43:14.921Z,29.45
2023-01-29T03:45:56.157Z,28.23
2023-01-29T03:48:32.924Z,29.52
2023-01-29T03:51:05.696Z,29.58
2023-01-29T03:53:44.123Z,29.20
2023-01-29T03:56:28.471Z,29.00
2023-01-29T03:59:02.450Z,28.70
2023-01-29T04:01:34.416Z,30.13
2023-01-29T04:04:11.063Z,29.05
2023-01-29T04:06:43.677Z,29.65
2023-01-29T04:09:15.738Z,28.65
2023-01-29T04:11:48.674Z,29.98
2023-01-29T04:14:16.345Z,30.00
2023-01-29T04:16:49.565Z,28.85
2023-01-29T04:19:18.870Z,31.27
2023-01-29T04:21:49.863Z,30.25
2023-01-29T04:24:18.234Z,28.48
2023-01-29T04:26:56.888Z,28.80
2023-01-29T04:29:41.440Z,28.80
2023-01-29T04:32:16.025Z,28.40
2023-01-29T04:34:59.210Z,28.58
2023-01-29T04:37:36.190Z,28.65
2023-01-29T04:40:16.069Z,29.52
2023-01-29T04:42:51.081Z,27.70
2023-01-29T04:45:27.061Z,28.52
2023-01-29T04:48:04.650Z,29.38
2023-01-29T04:50:38.203Z,29.17
2023-01-29T04:53:11.937Z,29.40
2023-01-29T04:55:44.634Z,28.00
2023-01-29T04:58:17.751Z,28.20
2023-01-29T05:00:49.101Z,28.40
2023-01-29T05:03:17.430Z,29.10
2023-01-29T05:05:48.947Z,27.17
2023-01-29T05:08:21.376Z,28.27
2023-01-29T05:10:50.633Z,28.52
2023-01-29T05:13:20.582Z,28.08
2023-01-29T05:15:53.326Z,28.48
2023-01-29T05:18:21.317Z,29.67
2023-01-29T05:20:51.158Z,29.33
2023-01-29T05:23:20.529Z,25.92
2023-01-29T05:25:49.118Z,27.67
2023-01-29T05:28:16.373Z,29.95
2023-01-29T05:30:45.349Z,26.02
2023-01-29T05:33:15.321Z,29.05
2023-01-29T05:35:43.161Z,24.25
2023-01-29T05:38:12.314Z,25.90
2023-01-29T05:40:39.930Z,24.85
2023-01-29T05:43:14.614Z,24.02
2023-01-29T05:45:42.133Z,24.52
2023-01-29T05:48:09.676Z,23.23
2023-01-29T05:50:37.161Z,24.70
2023-01-29T05:53:05.675Z,23.30
2023-01-29T05:55:34.561Z,24.08
2023-01-29T05:58:03.186Z,22.65
2023-01-29T06:00:32.407Z,22.50
2023-01-29T06:03:00.223Z,22.40
2023-01-29T06:05:27.721Z,21.10
2023-01-29T06:07:55.256Z,23.67
2023-01-29T06:10:22.710Z,22.00
2023-01-29T06:12:51.529Z,20.35
2023-01-29T06:15:19.716Z,22.17
2023-01-29T06:17:47.234Z,21.33
2023-01-29T06:20:15.401Z,22.73
2023-01-29T06:22:43.165Z,21.65
2023-01-29T06:25:10.934Z,22.65
2023-01-29T06:27:38.480Z,21.60
2023-01-29T06:30:09.061Z,21.58
2023-01-29T06:32:36.702Z,22.63
2023-01-29T06:35:04.752Z,20.58
2023-01-29T06:37:32.250Z,20.52
2023-01-29T06:39:59.724Z,21.92
2023-01-29T06:42:27.956Z,20.00
2023-01-29T06:44:55.660Z,20.90
2023-01-29T06:47:25.126Z,20.95
2023-01-29T06:49:52.596Z,20.50
2023-01-29T06:52:20.182Z,20.95
2023-01-29T06:54:47.714Z,21.60
2023-01-29T06:57:15.218Z,23.33
2023-01-29T06:59:42.790Z,21.25
2023-01-29T07:02:10.306Z,20.85
2023-01-29T07:04:39.335Z,20.77
2023-01-29T07:07:12.662Z,21.95
2023-01-29T07:09:41.711Z,20.73
2023-01-29T07:12:09.798Z,20.63
2023-01-29T07:14:37.620Z,22.13
2023-01-29T07:17:05.133Z,20.58
2023-01-29T07:19:32.617Z,21.52
2023-01-29T07:22:02.362Z,20.98
2023-01-29T07:24:30.022Z,21.65
2023-01-29T07:26:57.769Z,23.08
2023-01-29T07:29:25.268Z,22.33
2023-01-29T07:31:52.905Z,21.85
2023-01-29T07:34:20.594Z,23.42
2023-01-29T07:36:48.085Z,23.00
2023-01-29T07:39:16.968Z,21.95
2023-01-29T07:41:44.505Z,22.33
2023-01-29T07:44:12.118Z,23.65
2023-01-29T07:46:39.585Z,21.67
2023-01-29T07:49:07.122Z,21.27
2023-01-29T07:51:34.627Z,22.83
2023-01-29T07:54:02.124Z,21.38
2023-01-29T07:56:30.988Z,22.92
2023-01-29T07:58:58.599Z,22.70
2023-01-29T08:01:26.128Z,22.23
2023-01-29T08:03:53.714Z,21.70
2023-01-29T08:06:21.199Z,24.08
2023-01-29T08:08:48.943Z,22.38
2023-01-29T08:11:16.495Z,22.50
2023-01-29T08:13:46.551Z,21.92
2023-01-29T08:16:14.145Z,23.45
2023-01-29T08:18:43.953Z,23.33
2023-01-29T08:21:13.074Z,22.52
2023-01-29T08:23:41.519Z,23.63
2023-01-29T08:26:09.601Z,24.10
2023-01-29T08:28:38.580Z,22.85
2023-01-29T08:31:14.510Z,21.80
2023-01-29T08:33:42.076Z,21.58
2023-01-29T08:36:10.816Z,23.58
2023-01-29T08:38:38.582Z,21.88
2023-01-29T08:41:06.484Z,23.67
2023-01-29T08:43:35.185Z,22.65
2023-01-29T08:46:04.298Z,23.23
2023-01-29T08:48:33.425Z,23.88
2023-01-29T08:51:02.208Z,24.00
2023-01-29T08:53:29.762Z,23.25
2023-01-29T08:55:57.312Z,23.38
2023-01-29T08:58:24.795Z,21.58
2023-01-29T09:00:52.301Z,22.73
2023-01-29T09:03:19.839Z,23.65
2023-01-29T09:05:48.942Z,22.98
2023-01-29T09:08:16.448Z,23.17
2023-01-29T09:10:43.961Z,24.33
2023-01-29T09:13:11.458Z,23.75
2023-01-29T09:15:38.977Z,22.75
2023-01-29T09:18:06.991Z,23.45
2023-01-29T09:20:35.226Z,23.50
2023-01-29T09:23:06.760Z,24.00
2023-01-29T09:25:34.310Z,23.55
2023-01-29T09:28:01.817Z,23.85
2023-01-29T09:30:29.503Z,24.17
2023-01-29T09:32:57.000Z,22.98
2023-01-29T09:35:24.694Z,22.65
2023-01-29T09:37:53.330Z,23.40
2023-01-29T09:40:27.502Z,23.63
2023-01-29T09:43:00.393Z,23.98
2023-01-29T09:45:29.680Z,23.83
2023-01-29T09:48:01.321Z,24.23
2023-01-29T09:50:33.269Z,23.80
2023-01-29T09:53:05.774Z,23.63
2023-01-29T09:55:40.278Z,23.25
2023-01-29T09:58:15.190Z,24.10
2023-01-29T10:00:51.466Z,23.05
2023-01-29T10:03:36.246Z,22.75
2023-01-29T10:06:21.203Z,23.00
2023-01-29T10:09:04.719Z,22.67
2023-01-29T10:11:46.273Z,24.17
2023-01-29T10:14:22.682Z,25.88
2023-01-29T10:17:05.375Z,25.98
2023-01-29T10:19:55.985Z,24.10
2023-01-29T10:22:36.773Z,24.55
2023-01-29T10:25:05.969Z,22.60
2023-01-29T10:27:38.484Z,23.05
2023-01-29T10:30:09.971Z,24.10
2023-01-29T10:32:38.447Z,23.40
2023-01-29T10:35:21.112Z,23.77
2023-01-29T10:37:48.938Z,24.88
2023-01-29T10:40:21.001Z,24.05
2023-01-29T10:42:57.702Z,23.83
2023-01-29T10:45:33.362Z,24.25
2023-01-29T10:48:43.508Z,22.75
2023-01-29T10:51:24.125Z,22.85
2023-01-29T10:54:05.182Z,23.00
2023-01-29T10:56:53.385Z,22.38
2023-01-29T10:59:39.893Z,24.52
2023-01-29T11:02:17.801Z,23.48
2023-01-29T11:04:45.921Z,23.70
2023-01-29T11:07:14.775Z,23.30
2023-01-29T11:09:47.293Z,23.70
2023-01-29T11:12:17.456Z,23.58
2023-01-29T11:14:51.611Z,22.58
2023-01-29T11:17:20.185Z,24.40
2023-01-29T11:19:51.104Z,22.02
2023-01-29T11:22:20.783Z,23.33
2023-01-29T11:25:07.830Z,25.15
2023-01-29T11:27:39.942Z,28.38
2023-01-29T11:30:17.604Z,24.05
2023-01-29T11:32:45.331Z,22.33
2023-01-29T11:35:21.831Z,22.63
2023-01-29T11:37:49.333Z,23.27
2023-01-29T11:40:37.756Z,23.25
2023-01-29T11:43:23.484Z,24.27
2023-01-29T11:45:56.154Z,24.00
2023-01-29T11:48:28.273Z,23.92
2023-01-29T11:51:00.461Z,24.80
2023-01-29T11:53:38.058Z,21.77
2023-01-29T11:56:16.719Z,23.30
2023-01-29T11:58:45.928Z,23.30
2023-01-29T12:01:16.982Z,22.75
2023-01-29T12:03:49.412Z,22.20
2023-01-29T12:06:21.105Z,20.67
2023-01-29T12:08:57.885Z,22.63
2023-01-29T12:11:28.914Z,21.95
2023-01-29T12:13:58.162Z,23.55
2023-01-29T12:16:32.943Z,22.30
2023-01-29T12:19:11.359Z,22.50
2023-01-29T12:21:47.127Z,22.00
2023-01-29T12:24:26.024Z,21.55
2023-01-29T12:27:01.190Z,21.67
2023-01-29T12:29:38.482Z,20.67
2023-01-29T12:32:19.243Z,20.63
2023-01-29T12:34:52.099Z,20.85
2023-01-29T12:37:25.738Z,19.65
2023-01-29T12:39:53.435Z,20.30
2023-01-29T12:42:22.678Z,21.08
2023-01-29T12:44:54.437Z,20.88
2023-01-29T12:47:28.407Z,21.30
2023-01-29T12:49:58.796Z,20.30
2023-01-29T12:52:37.434Z,19.75
2023-01-29T12:55:12.496Z,20.42
2023-01-29T12:57:46.872Z,19.35
2023-01-29T13:00:20.069Z,19.17
2023-01-29T13:02:57.526Z,19.48
2023-01-29T13:05:28.072Z,20.05
2023-01-29T13:07:59.711Z,18.48
2023-01-29T13:10:34.022Z,19.05
2023-01-29T13:13:06.463Z,17.80
2023-01-29T13:15:37.324Z,19.13
2023-01-29T13:18:31.839Z,19.65
2023-01-29T13:21:00.355Z,19.23
2023-01-29T13:23:34.822Z,19.38
2023-01-29T13:26:02.656Z,19.47
2023-01-29T13:28:30.484Z,19.15
2023-01-29T13:31:25.202Z,17.25
2023-01-29T13:33:57.197Z,17.95
2023-01-29T13:36:29.234Z,18.35
2023-01-29T13:39:02.255Z,17.95
2023-01-29T13:41:35.540Z,17.05
2023-01-29T13:44:03.839Z,17.88
2023-01-29T13:46:33.056Z,18.48
2023-01-29T13:49:04.893Z,16.83
2023-01-29T13:51:37.218Z,16.30
2023-01-29T13:54:09.193Z,17.70
2023-01-29T13:56:47.746Z,17.92
2023-01-29T13:59:45.636Z,17.17
2023-01-29T14:02:28.777Z,16.75
2023-01-29T14:05:33.938Z,15.98
2023-01-29T14:08:02.921Z,16.92
2023-01-29T14:10:32.521Z,16.13
2023-01-29T14:13:35.720Z,17.35
2023-01-29T14:16:34.643Z,16.85
2023-01-29T14:19:05.730Z,16.55
2023-01-29T14:21:35.925Z,16.30
2023-01-29T14:24:13.035Z,15.80
2023-01-29T14:26:47.369Z,15.15
2023-01-29T14:29:32.649Z,16.27
2023-01-29T14:32:14.222Z,15.65
2023-01-29T14:34:48.026Z,16.65
2023-01-29T14:37:32.634Z,17.33
2023-01-29T14:40:15.205Z,15.38
2023-01-29T14:42:53.336Z,16.40
2023-01-29T14:45:27.051Z,15.05
2023-01-29T14:48:19.789Z,16.92
2023-01-29T14:51:05.459Z,14.73
2023-01-29T14:53:46.667Z,13.45
2023-01-29T14:56:18.324Z,16.13
2023-01-29T14:58:49.072Z,13.63
2023-01-29T15:01:24.409Z,14.48
2023-01-29T15:03:54.608Z,13.68
2023-01-29T15:06:32.823Z,13.95
2023-01-29T15:09:07.674Z,12.95
2023-01-29T15:11:42.890Z,12.80
2023-01-29T15:14:23.820Z,12.15
2023-01-29T15:17:19.108Z,13.55
2023-01-29T15:19:48.856Z,11.20
2023-01-29T15:22:19.409Z,12.85
2023-01-29T15:24:49.105Z,13.38
2023-01-29T15:27:19.647Z,12.93
2023-01-29T15:29:52.292Z,13.00
2023-01-29T15:32:30.509Z,13.35
2023-01-29T15:35:00.260Z,12.60
2023-01-29T15:37:32.354Z,13.77
2023-01-29T15:40:00.844Z,13.05
2023-01-29T15:42:29.954Z,12.95
2023-01-29T15:44:57.500Z,14.43
2023-01-29T15:47:29.253Z,13.32
2023-01-29T15:49:58.222Z,13.45
2023-01-29T15:52:30.256Z,13.43
2023-01-29T15:55:02.893Z,13.70
2023-01-29T15:57:35.258Z,13.38
2023-01-29T16:00:04.471Z,16.20
2023-01-29T16:02:40.914Z,14.60
2023-01-29T16:05:14.977Z,14.18
2023-01-29T16:07:45.256Z,15.00
2023-01-29T16:10:18.744Z,14.65
2023-01-29T16:12:51.250Z,15.50
2023-01-29T16:15:29.689Z,15.93
2023-01-29T16:17:57.624Z,15.40
2023-01-29T16:20:37.476Z,15.98
2023-01-29T16:23:07.896Z,15.43
2023-01-29T16:25:39.178Z,16.05
2023-01-29T16:28:10.896Z,16.75
2023-01-29T16:30:39.622Z,18.13
2023-01-29T16:33:09.026Z,17.00
2023-01-29T16:35:37.060Z,17.48
2023-01-29T16:38:08.459Z,15.45
2023-01-29T16:40:38.808Z,16.67
2023-01-29T16:43:49.343Z,16.33
2023-01-29T16:46:27.251Z,15.82
2023-01-29T16:48:55.166Z,16.05
2023-01-29T16:51:26.902Z,16.00
2023-01-29T16:53:59.791Z,16.42
2023-01-29T16:56:30.639Z,15.30
2023-01-29T16:58:59.042Z,16.85
2023-01-29T17:01:29.817Z,16.23
2023-01-29T17:04:07.507Z,17.15
2023-01-29T17:06:35.931Z,17.23
2023-01-29T17:09:06.088Z,17.85
2023-01-29T17:11:37.183Z,17.00
2023-01-29T17:14:06.561Z,16.83
2023-01-29T17:16:37.368Z,16.58
2023-01-29T17:19:17.646Z,17.00
2023-01-29T17:21:45.207Z,17.00
2023-01-29T17:24:14.032Z,19.45
2023-01-29T17:26:42.095Z,17.45
2023-01-29T17:29:15.348Z,17.95
2023-01-29T17:31:42.941Z,17.55
2023-01-29T17:34:14.236Z,16.30
2023-01-29T17:36:41.854Z,17.08
2023-01-29T17:39:17.782Z,16.48
2023-01-29T17:41:48.155Z,16.75
2023-01-29T17:44:15.934Z,16.77
2023-01-29T17:46:43.858Z,16.63
2023-01-29T17:49:22.584Z,17.67
2023-01-29T17:51:50.534Z,18.30
2023-01-29T17:54:19.445Z,17.98
2023-01-29T17:56:47.086Z,17.95
2023-01-29T17:59:15.636Z,17.08
2023-01-29T18:01:43.511Z,19.20
2023-01-29T18:04:11.113Z,17.40
2023-01-29T18:06:39.782Z,16.15
2023-01-29T18:09:07.420Z,17.25
2023-01-29T18:11:36.316Z,16.77
2023-01-29T18:14:13.614Z,18.70
2023-01-29T18:16:43.014Z,17.75
2023-01-29T18:19:15.549Z,17.67
2023-01-29T18:21:43.037Z,18.75
2023-01-29T18:24:10.600Z,18.77
2023-01-29T18:26:39.804Z,18.65
2023-01-29T18:29:07.292Z,18.15
2023-01-29T18:31:34.843Z,19.40
2023-01-29T18:34:02.353Z,18.90
2023-01-29T18:36:29.919Z,17.13
2023-01-29T18:38:57.742Z,19.25
2023-01-29T18:41:25.457Z,18.40
2023-01-29T18:43:54.275Z,18.40
2023-01-29T18:46:24.082Z,18.73
2023-01-29T18:48:51.683Z,18.33
2023-01-29T18:51:19.207Z,18.02
2023-01-29T18:53:50.415Z,17.88
2023-01-29T18:56:18.240Z,16.25
2023-01-29T18:58:52.065Z,15.45
2023-01-29T19:01:21.914Z,17.20
2023-01-29T19:03:49.442Z,16.92
2023-01-29T19:06:17.076Z,17.88
2023-01-29T19:08:44.686Z,15.38
2023-01-29T19:11:12.746Z,15.02
2023-01-29T19:13:42.384Z,17.40
2023-01-29T19:16:10.656Z,17.05
2023-01-29T19:18:39.480Z,17.08
2023-01-29T19:21:08.658Z,15.85
2023-01-29T19:23:36.150Z,16.90
2023-01-29T19:26:03.711Z,16.98
2023-01-29T19:28:31.156Z,14.88
2023-01-29T19:30:58.775Z,18.10
2023-01-29T19:33:27.579Z,16.13
2023-01-29T19:35:57.680Z,17.38
2023-01-29T19:38:25.813Z,17.38
2023-01-29T19:40:54.980Z,16.63
2023-01-29T19:43:22.487Z,17.58
2023-01-29T19:45:50.946Z,15.00
2023-01-29T19:48:21.088Z,15.20
2023-01-29T19:50:52.619Z,16.15
2023-01-29T19:53:22.725Z,16.50
2023-01-29T19:55:58.326Z,14.77
2023-01-29T19:58:26.020Z,16.98
2023-01-29T20:00:57.751Z,14.32
2023-01-29T20:03:25.660Z,15.05
2023-01-29T20:05:53.306Z,15.77
2023-01-29T20:08:22.250Z,14.77
2023-01-29T20:10:50.345Z,14.38
2023-01-29T20:13:17.902Z,15.07
2023-01-29T20:15:46.465Z,14.60
2023-01-29T20:18:14.347Z,16.15
2023-01-29T20:20:42.894Z,14.85
2023-01-29T20:23:11.012Z,15.05
2023-01-29T20:25:40.358Z,14.75
2023-01-29T20:28:11.490Z,15.52
2023-01-29T20:30:40.153Z,14.43
2023-01-29T20:33:08.388Z,16.70
2023-01-29T20:35:37.180Z,14.75
2023-01-29T20:38:05.929Z,15.35
2023-01-29T20:40:33.455Z,15.82
2023-01-29T20:43:02.311Z,14.98
2023-01-29T20:45:32.821Z,16.95
2023-01-29T20:48:00.306Z,15.02
2023-01-29T20:50:27.914Z,16.23
2023-01-29T20:52:55.375Z,15.85
2023-01-29T20:55:22.927Z,16.70
2023-01-29T20:58:05.823Z,14.35
2023-01-29T21:00:35.678Z,15.43
2023-01-29T21:03:03.266Z,14.77
2023-01-29T21:05:30.756Z,15.38
2023-01-29T21:07:58.294Z,14.40
2023-01-29T21:10:25.751Z,14.98
2023-01-29T21:12:54.501Z,15.00
2023-01-29T21:15:23.304Z,16.05
2023-01-29T21:17:52.562Z,14.80
2023-01-29T21:20:20.345Z,16.17
2023-01-29T21:22:49.135Z,16.40
2023-01-29T21:25:20.027Z,15.68
2023-01-29T21:27:47.565Z,15.52
2023-01-29T21:30:15.547Z,15.10
2023-01-29T21:32:43.146Z,16.70
2023-01-29T21:35:12.167Z,16.83
2023-01-29T21:37:39.707Z,15.48
2023-01-29T21:40:09.110Z,17.05
2023-01-29T21:42:54.104Z,16.27
2023-01-29T21:45:21.689Z,15.43
2023-01-29T21:47:49.279Z,15.98
2023-01-29T21:50:18.905Z,15.98
2023-01-29T21:52:46.489Z,15.27
2023-01-29T21:55:14.058Z,17.08
2023-01-29T21:57:42.907Z,16.63
2023-01-29T22:00:12.383Z,16.45
2023-01-29T22:02:40.195Z,16.92
2023-01-29T22:05:18.629Z,16.00
2023-01-29T22:07:49.272Z,16.63
2023-01-29T22:10:17.960Z,15.45
2023-01-29T22:12:46.045Z,16.67
2023-01-29T22:15:14.898Z,16.08
2023-01-29T22:17:42.571Z,15.63
2023-01-29T22:20:11.947Z,16.42
2023-01-29T22:22:39.469Z,15.82
2023-01-29T22:25:09.412Z,16.27
2023-01-29T22:27:36.994Z,16.50
2023-01-29T22:30:05.066Z,16.23
2023-01-29T22:32:33.208Z,16.70
2023-01-29T22:35:00.846Z,16.20
2023-01-29T22:37:28.435Z,15.85
2023-01-29T22:39:55.920Z,15.93
2023-01-29T22:42:24.751Z,17.63
2023-01-29T22:44:52.244Z,17.75
2023-01-29T22:47:19.837Z,16.85
2023-01-29T22:49:49.902Z,16.58
2023-01-29T22:52:21.079Z,16.08
2023-01-29T22:54:48.611Z,17.30
2023-01-29T22:57:16.666Z,17.00
2023-01-29T22:59:45.934Z,16.45
2023-01-29T23:02:13.399Z,16.38
2023-01-29T23:04:40.938Z,17.08
2023-01-29T23:07:08.420Z,16.80
2023-01-29T23:09:35.906Z,18.15
2023-01-29T23:12:03.400Z,18.98
2023-01-29T23:14:30.884Z,16.27
2023-01-29T23:16:59.708Z,16.52
2023-01-29T23:19:27.253Z,16.92
2023-01-29T23:21:54.733Z,17.17
2023-01-29T23:24:22.451Z,17.73
2023-01-29T23:27:07.476Z,17.58
2023-01-29T23:29:34.953Z,17.20
2023-01-29T23:32:04.411Z,16.00
2023-01-29T23:34:31.924Z,16.55
2023-01-29T23:36:59.800Z,15.98
2023-01-29T23:39:27.344Z,16.98
2023-01-29T23:41:54.848Z,14.68
2023-01-29T23:44:22.364Z,17.67
2023-01-29T23:46:49.952Z,18.90
2023-01-29T23:49:19.374Z,17.75
2023-01-29T23:51:48.588Z,16.48
2023-01-29T23:54:16.435Z,16.95
2023-01-29T23:56:44.434Z,17.90
2023-01-29T23:59:12.196Z,17.27
